sensor_id;sensor_type;location;lat;lon;timestamp;P1;durP1;ratioP1;P2;durP2;ratioP2
66425;SDS011;53237;46.158;14.604;2022-07-21T00:01:51;3.08;;;2.00;;
66425;SDS011;53237;46.158;14.604;2022-07-21T00:04:18;2.25;;;1.98;;
66425;SDS011;53237;46.158;14.604;2022-07-21T00:06:44;3.58;;;1.98;;
66425;SDS011;53237;46.158;14.604;2022-07-21T00:09:11;3.53;;;1.92;;
66425;SDS011;53237;46.158;14.604;2022-07-21T00:11:37;2.15;;;1.95;;
66425;SDS011;53237;46.158;14.604;2022-07-21T00:14:04;3.63;;;2.10;;
66425;SDS011;53237;46.158;14.604;2022-07-21T00:16:30;2.80;;;2.10;;
66425;SDS011;53237;46.158;14.604;2022-07-21T00:18:56;2.78;;;2.13;;
66425;SDS011;53237;46.158;14.604;2022-07-21T00:21:24;2.05;;;1.85;;
66425;SDS011;53237;46.158;14.604;2022-07-21T00:23:50;2.75;;;1.90;;
66425;SDS011;53237;46.158;14.604;2022-07-21T00:26:16;2.90;;;2.22;;
66425;SDS011;53237;46.158;14.604;2022-07-21T00:28:42;2.30;;;2.10;;
66425;SDS011;53237;46.158;14.604;2022-07-21T00:31:08;2.58;;;2.20;;
66425;SDS011;53237;46.158;14.604;2022-07-21T00:33:34;2.65;;;2.10;;
66425;SDS011;53237;46.158;14.604;2022-07-21T00:36:00;2.78;;;2.05;;
66425;SDS011;53237;46.158;14.604;2022-07-21T00:38:26;2.30;;;2.10;;
66425;SDS011;53237;46.158;14.604;2022-07-21T00:40:53;2.40;;;2.20;;
66425;SDS011;53237;46.158;14.604;2022-07-21T00:43:18;2.10;;;1.90;;
66425;SDS011;53237;46.158;14.604;2022-07-21T00:45:45;2.17;;;1.98;;
66425;SDS011;53237;46.158;14.604;2022-07-21T00:48:11;4.47;;;2.50;;
66425;SDS011;53237;46.158;14.604;2022-07-21T00:50:37;3.20;;;2.13;;
66425;SDS011;53237;46.158;14.604;2022-07-21T00:53:03;3.13;;;2.13;;
66425;SDS011;53237;46.158;14.604;2022-07-21T00:55:29;1.95;;;1.85;;
66425;SDS011;53237;46.158;14.604;2022-07-21T00:57:55;3.85;;;1.85;;
66425;SDS011;53237;46.158;14.604;2022-07-21T01:00:23;2.03;;;1.83;;
66425;SDS011;53237;46.158;14.604;2022-07-21T01:02:50;2.50;;;2.20;;
66425;SDS011;53237;46.158;14.604;2022-07-21T01:05:16;2.45;;;2.05;;
66425;SDS011;53237;46.158;14.604;2022-07-21T01:07:47;2.40;;;1.90;;
66425;SDS011;53237;46.158;14.604;2022-07-21T01:10:13;3.53;;;2.40;;
66425;SDS011;53237;46.158;14.604;2022-07-21T01:12:41;2.42;;;2.13;;
66425;SDS011;53237;46.158;14.604;2022-07-21T01:15:08;4.63;;;2.35;;
66425;SDS011;53237;46.158;14.604;2022-07-21T01:17:34;2.22;;;2.13;;
66425;SDS011;53237;46.158;14.604;2022-07-21T01:20:05;2.50;;;1.90;;
66425;SDS011;53237;46.158;14.604;2022-07-21T01:22:32;2.33;;;2.13;;
66425;SDS011;53237;46.158;14.604;2022-07-21T01:24:58;2.22;;;2.00;;
66425;SDS011;53237;46.158;14.604;2022-07-21T01:27:28;2.00;;;1.90;;
66425;SDS011;53237;46.158;14.604;2022-07-21T01:29:54;3.10;;;2.35;;
66425;SDS011;53237;46.158;14.604;2022-07-21T01:32:20;2.25;;;1.80;;
66425;SDS011;53237;46.158;14.604;2022-07-21T01:34:46;2.97;;;2.00;;
66425;SDS011;53237;46.158;14.604;2022-07-21T01:37:13;2.45;;;1.90;;
66425;SDS011;53237;46.158;14.604;2022-07-21T01:39:39;3.22;;;2.20;;
66425;SDS011;53237;46.158;14.604;2022-07-21T01:42:23;3.40;;;1.92;;
66425;SDS011;53237;46.158;14.604;2022-07-21T01:44:49;2.55;;;2.00;;
66425;SDS011;53237;46.158;14.604;2022-07-21T01:47:16;2.70;;;1.90;;
66425;SDS011;53237;46.158;14.604;2022-07-21T01:49:43;2.35;;;1.95;;
66425;SDS011;53237;46.158;14.604;2022-07-21T01:52:08;2.33;;;2.13;;
66425;SDS011;53237;46.158;14.604;2022-07-21T01:54:35;3.22;;;2.05;;
66425;SDS011;53237;46.158;14.604;2022-07-21T01:57:01;2.40;;;2.22;;
66425;SDS011;53237;46.158;14.604;2022-07-21T01:59:27;3.50;;;2.00;;
66425;SDS011;53237;46.158;14.604;2022-07-21T02:01:53;2.72;;;2.47;;
66425;SDS011;53237;46.158;14.604;2022-07-21T02:04:19;1.98;;;1.88;;
66425;SDS011;53237;46.158;14.604;2022-07-21T02:06:45;3.00;;;2.00;;
66425;SDS011;53237;46.158;14.604;2022-07-21T02:09:11;2.58;;;2.10;;
66425;SDS011;53237;46.158;14.604;2022-07-21T02:11:37;2.15;;;1.95;;
66425;SDS011;53237;46.158;14.604;2022-07-21T02:14:03;2.00;;;1.90;;
66425;SDS011;53237;46.158;14.604;2022-07-21T02:16:29;3.33;;;2.17;;
66425;SDS011;53237;46.158;14.604;2022-07-21T02:18:55;3.17;;;1.83;;
66425;SDS011;53237;46.158;14.604;2022-07-21T02:21:21;2.55;;;2.28;;
66425;SDS011;53237;46.158;14.604;2022-07-21T02:23:47;2.53;;;1.98;;
66425;SDS011;53237;46.158;14.604;2022-07-21T02:26:13;1.90;;;1.80;;
66425;SDS011;53237;46.158;14.604;2022-07-21T02:28:39;3.03;;;2.10;;
66425;SDS011;53237;46.158;14.604;2022-07-21T02:31:05;2.17;;;2.05;;
66425;SDS011;53237;46.158;14.604;2022-07-21T02:33:31;2.22;;;2.05;;
66425;SDS011;53237;46.158;14.604;2022-07-21T02:35:58;2.35;;;1.88;;
66425;SDS011;53237;46.158;14.604;2022-07-21T02:38:24;2.90;;;2.13;;
66425;SDS011;53237;46.158;14.604;2022-07-21T02:40:50;4.25;;;2.05;;
66425;SDS011;53237;46.158;14.604;2022-07-21T02:43:16;1.90;;;1.80;;
66425;SDS011;53237;46.158;14.604;2022-07-21T02:45:42;2.75;;;2.00;;
66425;SDS011;53237;46.158;14.604;2022-07-21T02:48:09;2.30;;;2.10;;
66425;SDS011;53237;46.158;14.604;2022-07-21T02:50:36;2.08;;;1.67;;
66425;SDS011;53237;46.158;14.604;2022-07-21T02:53:03;3.17;;;1.98;;
66425;SDS011;53237;46.158;14.604;2022-07-21T02:55:30;2.13;;;2.00;;
66425;SDS011;53237;46.158;14.604;2022-07-21T02:58:03;2.00;;;1.90;;
66425;SDS011;53237;46.158;14.604;2022-07-21T03:00:29;2.30;;;1.90;;
66425;SDS011;53237;46.158;14.604;2022-07-21T03:02:55;2.13;;;2.00;;
66425;SDS011;53237;46.158;14.604;2022-07-21T03:05:21;3.15;;;2.00;;
66425;SDS011;53237;46.158;14.604;2022-07-21T03:07:48;2.10;;;1.90;;
66425;SDS011;53237;46.158;14.604;2022-07-21T03:10:14;2.00;;;1.80;;
66425;SDS011;53237;46.158;14.604;2022-07-21T03:12:39;2.10;;;1.90;;
66425;SDS011;53237;46.158;14.604;2022-07-21T03:15:06;2.97;;;1.90;;
66425;SDS011;53237;46.158;14.604;2022-07-21T03:17:32;2.10;;;2.00;;
66425;SDS011;53237;46.158;14.604;2022-07-21T03:19:58;2.38;;;2.08;;
66425;SDS011;53237;46.158;14.604;2022-07-21T03:22:24;2.30;;;2.08;;
66425;SDS011;53237;46.158;14.604;2022-07-21T03:24:50;4.25;;;2.70;;
66425;SDS011;53237;46.158;14.604;2022-07-21T03:27:16;2.03;;;1.90;;
66425;SDS011;53237;46.158;14.604;2022-07-21T03:29:42;2.67;;;1.90;;
66425;SDS011;53237;46.158;14.604;2022-07-21T03:32:08;2.35;;;2.20;;
66425;SDS011;53237;46.158;14.604;2022-07-21T03:34:34;2.38;;;1.98;;
66425;SDS011;53237;46.158;14.604;2022-07-21T03:37:00;3.75;;;2.00;;
66425;SDS011;53237;46.158;14.604;2022-07-21T03:39:26;2.13;;;1.92;;
66425;SDS011;53237;46.158;14.604;2022-07-21T03:41:52;1.90;;;1.80;;
66425;SDS011;53237;46.158;14.604;2022-07-21T03:44:18;3.08;;;2.17;;
66425;SDS011;53237;46.158;14.604;2022-07-21T03:46:44;2.25;;;2.05;;
66425;SDS011;53237;46.158;14.604;2022-07-21T03:49:10;2.88;;;2.00;;
66425;SDS011;53237;46.158;14.604;2022-07-21T03:51:36;2.38;;;1.95;;
66425;SDS011;53237;46.158;14.604;2022-07-21T03:54:02;2.30;;;2.10;;
66425;SDS011;53237;46.158;14.604;2022-07-21T03:56:28;3.45;;;2.33;;
66425;SDS011;53237;46.158;14.604;2022-07-21T03:58:54;2.30;;;2.10;;
66425;SDS011;53237;46.158;14.604;2022-07-21T04:01:20;2.50;;;2.30;;
66425;SDS011;53237;46.158;14.604;2022-07-21T04:03:46;2.20;;;2.00;;
66425;SDS011;53237;46.158;14.604;2022-07-21T04:06:12;3.25;;;2.17;;
66425;SDS011;53237;46.158;14.604;2022-07-21T04:08:38;2.30;;;2.10;;
66425;SDS011;53237;46.158;14.604;2022-07-21T04:11:04;3.17;;;1.90;;
66425;SDS011;53237;46.158;14.604;2022-07-21T04:13:30;4.93;;;2.35;;
66425;SDS011;53237;46.158;14.604;2022-07-21T04:15:56;3.22;;;2.03;;
66425;SDS011;53237;46.158;14.604;2022-07-21T04:18:22;3.10;;;2.30;;
66425;SDS011;53237;46.158;14.604;2022-07-21T04:20:48;2.67;;;2.05;;
66425;SDS011;53237;46.158;14.604;2022-07-21T04:23:14;2.60;;;2.40;;
66425;SDS011;53237;46.158;14.604;2022-07-21T04:25:40;3.20;;;2.03;;
66425;SDS011;53237;46.158;14.604;2022-07-21T04:28:06;2.75;;;1.92;;
66425;SDS011;53237;46.158;14.604;2022-07-21T04:30:33;2.95;;;2.28;;
66425;SDS011;53237;46.158;14.604;2022-07-21T04:32:59;2.55;;;2.33;;
66425;SDS011;53237;46.158;14.604;2022-07-21T04:35:25;3.10;;;1.90;;
66425;SDS011;53237;46.158;14.604;2022-07-21T04:37:51;2.58;;;2.17;;
66425;SDS011;53237;46.158;14.604;2022-07-21T04:40:17;5.63;;;2.30;;
66425;SDS011;53237;46.158;14.604;2022-07-21T04:42:43;2.92;;;2.25;;
66425;SDS011;53237;46.158;14.604;2022-07-21T04:45:10;2.40;;;2.20;;
66425;SDS011;53237;46.158;14.604;2022-07-21T04:47:50;3.72;;;2.05;;
66425;SDS011;53237;46.158;14.604;2022-07-21T04:50:17;2.40;;;2.20;;
66425;SDS011;53237;46.158;14.604;2022-07-21T04:52:43;2.97;;;2.15;;
66425;SDS011;53237;46.158;14.604;2022-07-21T04:55:10;2.55;;;2.20;;
66425;SDS011;53237;46.158;14.604;2022-07-21T04:57:37;2.00;;;1.80;;
66425;SDS011;53237;46.158;14.604;2022-07-21T05:00:03;2.35;;;2.10;;
66425;SDS011;53237;46.158;14.604;2022-07-21T05:02:30;2.25;;;1.83;;
66425;SDS011;53237;46.158;14.604;2022-07-21T05:04:56;2.33;;;2.10;;
66425;SDS011;53237;46.158;14.604;2022-07-21T05:07:22;3.70;;;2.03;;
66425;SDS011;53237;46.158;14.604;2022-07-21T05:09:48;4.35;;;2.33;;
66425;SDS011;53237;46.158;14.604;2022-07-21T05:12:14;2.28;;;2.10;;
66425;SDS011;53237;46.158;14.604;2022-07-21T05:14:40;2.50;;;2.30;;
66425;SDS011;53237;46.158;14.604;2022-07-21T05:17:06;2.40;;;2.13;;
66425;SDS011;53237;46.158;14.604;2022-07-21T05:19:32;2.45;;;2.25;;
66425;SDS011;53237;46.158;14.604;2022-07-21T05:21:58;3.33;;;2.40;;
66425;SDS011;53237;46.158;14.604;2022-07-21T05:24:24;1.98;;;1.88;;
66425;SDS011;53237;46.158;14.604;2022-07-21T05:26:50;5.10;;;2.40;;
66425;SDS011;53237;46.158;14.604;2022-07-21T05:29:16;2.38;;;2.20;;
66425;SDS011;53237;46.158;14.604;2022-07-21T05:31:42;2.85;;;2.42;;
66425;SDS011;53237;46.158;14.604;2022-07-21T05:34:09;3.38;;;2.60;;
66425;SDS011;53237;46.158;14.604;2022-07-21T05:36:35;3.00;;;2.70;;
66425;SDS011;53237;46.158;14.604;2022-07-21T05:39:02;4.20;;;2.90;;
66425;SDS011;53237;46.158;14.604;2022-07-21T05:41:28;5.25;;;3.00;;
66425;SDS011;53237;46.158;14.604;2022-07-21T05:43:54;4.25;;;2.63;;
66425;SDS011;53237;46.158;14.604;2022-07-21T05:46:20;2.50;;;2.30;;
66425;SDS011;53237;46.158;14.604;2022-07-21T05:48:46;3.70;;;2.50;;
66425;SDS011;53237;46.158;14.604;2022-07-21T05:51:12;3.15;;;2.38;;
66425;SDS011;53237;46.158;14.604;2022-07-21T05:53:38;3.45;;;2.60;;
66425;SDS011;53237;46.158;14.604;2022-07-21T05:56:04;2.92;;;2.60;;
66425;SDS011;53237;46.158;14.604;2022-07-21T05:58:30;2.80;;;2.38;;
66425;SDS011;53237;46.158;14.604;2022-07-21T06:00:56;3.50;;;2.97;;
66425;SDS011;53237;46.158;14.604;2022-07-21T06:03:35;4.95;;;3.08;;
66425;SDS011;53237;46.158;14.604;2022-07-21T06:06:01;6.53;;;4.63;;
66425;SDS011;53237;46.158;14.604;2022-07-21T06:08:27;4.20;;;2.67;;
66425;SDS011;53237;46.158;14.604;2022-07-21T06:10:53;3.33;;;2.70;;
66425;SDS011;53237;46.158;14.604;2022-07-21T06:13:19;4.07;;;2.90;;
66425;SDS011;53237;46.158;14.604;2022-07-21T06:15:45;4.53;;;2.90;;
66425;SDS011;53237;46.158;14.604;2022-07-21T06:18:11;4.10;;;3.10;;
66425;SDS011;53237;46.158;14.604;2022-07-21T06:20:37;10.13;;;4.75;;
66425;SDS011;53237;46.158;14.604;2022-07-21T06:23:04;7.88;;;4.25;;
66425;SDS011;53237;46.158;14.604;2022-07-21T06:25:30;5.63;;;4.28;;
66425;SDS011;53237;46.158;14.604;2022-07-21T06:27:56;7.90;;;4.00;;
66425;SDS011;53237;46.158;14.604;2022-07-21T06:30:22;3.85;;;2.80;;
66425;SDS011;53237;46.158;14.604;2022-07-21T06:32:48;4.60;;;3.17;;
66425;SDS011;53237;46.158;14.604;2022-07-21T06:35:14;10.00;;;4.32;;
66425;SDS011;53237;46.158;14.604;2022-07-21T06:37:44;5.75;;;4.07;;
66425;SDS011;53237;46.158;14.604;2022-07-21T06:40:10;9.80;;;4.82;;
66425;SDS011;53237;46.158;14.604;2022-07-21T06:42:36;4.93;;;3.22;;
66425;SDS011;53237;46.158;14.604;2022-07-21T06:45:03;4.65;;;3.10;;
66425;SDS011;53237;46.158;14.604;2022-07-21T06:47:29;8.63;;;4.03;;
66425;SDS011;53237;46.158;14.604;2022-07-21T06:49:55;10.38;;;4.70;;
66425;SDS011;53237;46.158;14.604;2022-07-21T06:52:22;4.30;;;3.03;;
66425;SDS011;53237;46.158;14.604;2022-07-21T06:54:48;4.65;;;3.30;;
66425;SDS011;53237;46.158;14.604;2022-07-21T06:57:14;6.47;;;3.25;;
66425;SDS011;53237;46.158;14.604;2022-07-21T06:59:40;7.85;;;3.50;;
66425;SDS011;53237;46.158;14.604;2022-07-21T07:02:06;10.27;;;5.25;;
66425;SDS011;53237;46.158;14.604;2022-07-21T07:04:32;6.38;;;4.20;;
66425;SDS011;53237;46.158;14.604;2022-07-21T07:06:58;8.18;;;4.55;;
66425;SDS011;53237;46.158;14.604;2022-07-21T07:09:24;4.90;;;4.22;;
66425;SDS011;53237;46.158;14.604;2022-07-21T07:11:50;5.35;;;3.85;;
66425;SDS011;53237;46.158;14.604;2022-07-21T07:14:17;7.25;;;3.55;;
66425;SDS011;53237;46.158;14.604;2022-07-21T07:16:43;8.00;;;3.90;;
66425;SDS011;53237;46.158;14.604;2022-07-21T07:19:09;9.63;;;4.85;;
66425;SDS011;53237;46.158;14.604;2022-07-21T07:21:35;6.05;;;3.70;;
66425;SDS011;53237;46.158;14.604;2022-07-21T07:24:01;5.00;;;4.43;;
66425;SDS011;53237;46.158;14.604;2022-07-21T07:26:28;5.63;;;3.63;;
66425;SDS011;53237;46.158;14.604;2022-07-21T07:28:54;5.15;;;4.03;;
66425;SDS011;53237;46.158;14.604;2022-07-21T07:31:20;11.98;;;5.05;;
66425;SDS011;53237;46.158;14.604;2022-07-21T07:33:46;7.53;;;3.70;;
66425;SDS011;53237;46.158;14.604;2022-07-21T07:36:12;4.45;;;3.35;;
66425;SDS011;53237;46.158;14.604;2022-07-21T07:38:39;9.65;;;4.63;;
66425;SDS011;53237;46.158;14.604;2022-07-21T07:41:05;5.25;;;3.15;;
66425;SDS011;53237;46.158;14.604;2022-07-21T07:43:31;7.82;;;4.05;;
66425;SDS011;53237;46.158;14.604;2022-07-21T07:45:57;4.22;;;3.40;;
66425;SDS011;53237;46.158;14.604;2022-07-21T07:48:24;5.00;;;3.55;;
66425;SDS011;53237;46.158;14.604;2022-07-21T07:50:50;7.60;;;3.30;;
66425;SDS011;53237;46.158;14.604;2022-07-21T07:53:16;6.97;;;3.75;;
66425;SDS011;53237;46.158;14.604;2022-07-21T07:55:42;7.20;;;5.15;;
66425;SDS011;53237;46.158;14.604;2022-07-21T07:58:08;6.00;;;3.83;;
66425;SDS011;53237;46.158;14.604;2022-07-21T08:00:34;6.53;;;3.75;;
66425;SDS011;53237;46.158;14.604;2022-07-21T08:03:00;4.63;;;3.42;;
66425;SDS011;53237;46.158;14.604;2022-07-21T08:05:26;5.43;;;3.50;;
66425;SDS011;53237;46.158;14.604;2022-07-21T08:07:52;3.50;;;3.15;;
66425;SDS011;53237;46.158;14.604;2022-07-21T08:10:18;4.70;;;3.10;;
66425;SDS011;53237;46.158;14.604;2022-07-21T08:12:44;4.05;;;3.33;;
66425;SDS011;53237;46.158;14.604;2022-07-21T08:15:10;4.43;;;3.20;;
66425;SDS011;53237;46.158;14.604;2022-07-21T08:17:37;3.28;;;2.97;;
66425;SDS011;53237;46.158;14.604;2022-07-21T08:20:03;5.07;;;3.35;;
66425;SDS011;53237;46.158;14.604;2022-07-21T08:22:30;5.72;;;3.63;;
66425;SDS011;53237;46.158;14.604;2022-07-21T08:24:56;5.53;;;3.95;;
66425;SDS011;53237;46.158;14.604;2022-07-21T08:27:22;7.53;;;3.35;;
66425;SDS011;53237;46.158;14.604;2022-07-21T08:29:48;4.00;;;2.97;;
66425;SDS011;53237;46.158;14.604;2022-07-21T08:32:15;4.65;;;3.58;;
66425;SDS011;53237;46.158;14.604;2022-07-21T08:34:43;6.47;;;3.63;;
66425;SDS011;53237;46.158;14.604;2022-07-21T08:37:09;3.30;;;3.00;;
66425;SDS011;53237;46.158;14.604;2022-07-21T08:39:35;4.63;;;2.53;;
66425;SDS011;53237;46.158;14.604;2022-07-21T08:42:01;7.38;;;2.90;;
66425;SDS011;53237;46.158;14.604;2022-07-21T08:44:27;4.47;;;3.25;;
66425;SDS011;53237;46.158;14.604;2022-07-21T08:46:53;4.63;;;2.58;;
66425;SDS011;53237;46.158;14.604;2022-07-21T08:49:20;4.88;;;3.13;;
66425;SDS011;53237;46.158;14.604;2022-07-21T08:51:50;4.50;;;3.00;;
66425;SDS011;53237;46.158;14.604;2022-07-21T08:54:16;2.90;;;2.60;;
66425;SDS011;53237;46.158;14.604;2022-07-21T08:56:43;4.03;;;2.22;;
66425;SDS011;53237;46.158;14.604;2022-07-21T08:59:09;5.63;;;2.58;;
66425;SDS011;53237;46.158;14.604;2022-07-21T09:01:35;17.10;;;3.65;;
66425;SDS011;53237;46.158;14.604;2022-07-21T09:04:23;9.00;;;3.30;;
66425;SDS011;53237;46.158;14.604;2022-07-21T09:06:49;4.30;;;2.53;;
66425;SDS011;53237;46.158;14.604;2022-07-21T09:09:19;4.25;;;2.30;;
66425;SDS011;53237;46.158;14.604;2022-07-21T09:11:46;3.05;;;2.33;;
66425;SDS011;53237;46.158;14.604;2022-07-21T09:14:13;3.70;;;2.78;;
66425;SDS011;53237;46.158;14.604;2022-07-21T09:16:41;8.55;;;2.80;;
66425;SDS011;53237;46.158;14.604;2022-07-21T09:19:30;3.58;;;2.30;;
66425;SDS011;53237;46.158;14.604;2022-07-21T09:21:59;6.15;;;2.20;;
66425;SDS011;53237;46.158;14.604;2022-07-21T09:24:29;2.70;;;1.80;;
66425;SDS011;53237;46.158;14.604;2022-07-21T09:27:15;3.63;;;1.80;;
66425;SDS011;53237;46.158;14.604;2022-07-21T09:34:46;2.10;;;1.90;;
66425;SDS011;53237;46.158;14.604;2022-07-21T09:37:13;2.30;;;1.90;;
66425;SDS011;53237;46.158;14.604;2022-07-21T09:39:40;3.45;;;2.10;;
66425;SDS011;53237;46.158;14.604;2022-07-21T09:42:12;5.22;;;2.10;;
66425;SDS011;53237;46.158;14.604;2022-07-21T09:44:40;5.07;;;2.53;;
66425;SDS011;53237;46.158;14.604;2022-07-21T09:47:11;2.20;;;2.00;;
66425;SDS011;53237;46.158;14.604;2022-07-21T09:49:38;2.42;;;2.00;;
66425;SDS011;53237;46.158;14.604;2022-07-21T09:52:20;5.15;;;2.10;;
66425;SDS011;53237;46.158;14.604;2022-07-21T09:54:47;4.20;;;2.10;;
66425;SDS011;53237;46.158;14.604;2022-07-21T09:57:14;2.03;;;1.88;;
66425;SDS011;53237;46.158;14.604;2022-07-21T09:59:44;2.67;;;2.10;;
66425;SDS011;53237;46.158;14.604;2022-07-21T10:02:14;4.10;;;1.90;;
66425;SDS011;53237;46.158;14.604;2022-07-21T10:04:40;5.27;;;1.83;;
66425;SDS011;53237;46.158;14.604;2022-07-21T10:07:07;3.90;;;2.05;;
66425;SDS011;53237;46.158;14.604;2022-07-21T10:09:33;2.30;;;1.77;;
66425;SDS011;53237;46.158;14.604;2022-07-21T10:11:59;2.35;;;1.80;;
66425;SDS011;53237;46.158;14.604;2022-07-21T10:14:25;2.55;;;2.03;;
66425;SDS011;53237;46.158;14.604;2022-07-21T10:16:51;3.72;;;2.10;;
66425;SDS011;53237;46.158;14.604;2022-07-21T10:24:18;3.78;;;1.88;;
66425;SDS011;53237;46.158;14.604;2022-07-21T10:27:01;3.88;;;1.88;;
66425;SDS011;53237;46.158;14.604;2022-07-21T10:32:14;2.05;;;1.80;;
66425;SDS011;53237;46.158;14.604;2022-07-21T10:34:40;3.67;;;2.08;;
66425;SDS011;53237;46.158;14.604;2022-07-21T10:37:06;5.60;;;1.90;;
66425;SDS011;53237;46.158;14.604;2022-07-21T10:39:32;2.30;;;2.10;;
66425;SDS011;53237;46.158;14.604;2022-07-21T10:41:58;2.10;;;1.75;;
66425;SDS011;53237;46.158;14.604;2022-07-21T10:49:48;1.60;;;1.50;;
66425;SDS011;53237;46.158;14.604;2022-07-21T10:53:16;4.05;;;1.98;;
66425;SDS011;53237;46.158;14.604;2022-07-21T11:02:47;2.58;;;1.77;;
66425;SDS011;53237;46.158;14.604;2022-07-21T11:05:14;2.50;;;1.70;;
66425;SDS011;53237;46.158;14.604;2022-07-21T11:10:24;2.13;;;1.50;;
66425;SDS011;53237;46.158;14.604;2022-07-21T11:12:54;2.08;;;1.65;;
66425;SDS011;53237;46.158;14.604;2022-07-21T11:18:05;1.50;;;1.40;;
66425;SDS011;53237;46.158;14.604;2022-07-21T11:20:31;2.03;;;1.40;;
66425;SDS011;53237;46.158;14.604;2022-07-21T11:22:57;3.95;;;1.58;;
66425;SDS011;53237;46.158;14.604;2022-07-21T11:25:28;1.88;;;1.70;;
66425;SDS011;53237;46.158;14.604;2022-07-21T11:27:54;1.70;;;1.60;;
66425;SDS011;53237;46.158;14.604;2022-07-21T11:30:20;2.30;;;1.48;;
66425;SDS011;53237;46.158;14.604;2022-07-21T11:32:46;3.70;;;1.63;;
66425;SDS011;53237;46.158;14.604;2022-07-21T11:35:13;3.70;;;1.52;;
66425;SDS011;53237;46.158;14.604;2022-07-21T11:37:43;1.60;;;1.50;;
66425;SDS011;53237;46.158;14.604;2022-07-21T11:40:10;2.03;;;1.70;;
66425;SDS011;53237;46.158;14.604;2022-07-21T11:42:37;2.45;;;1.30;;
66425;SDS011;53237;46.158;14.604;2022-07-21T11:45:04;3.28;;;1.60;;
66425;SDS011;53237;46.158;14.604;2022-07-21T11:47:31;3.22;;;1.30;;
66425;SDS011;53237;46.158;14.604;2022-07-21T11:49:58;1.48;;;1.38;;
66425;SDS011;53237;46.158;14.604;2022-07-21T11:52:28;3.05;;;1.40;;
66425;SDS011;53237;46.158;14.604;2022-07-21T11:54:55;3.67;;;1.70;;
66425;SDS011;53237;46.158;14.604;2022-07-21T11:57:22;2.20;;;1.25;;
66425;SDS011;53237;46.158;14.604;2022-07-21T11:59:48;1.75;;;1.42;;
66425;SDS011;53237;46.158;14.604;2022-07-21T12:04:59;1.50;;;1.27;;
66425;SDS011;53237;46.158;14.604;2022-07-21T12:07:36;1.33;;;1.17;;
66425;SDS011;53237;46.158;14.604;2022-07-21T12:10:04;1.50;;;1.40;;
66425;SDS011;53237;46.158;14.604;2022-07-21T12:14:56;1.80;;;1.45;;
66425;SDS011;53237;46.158;14.604;2022-07-21T12:17:33;2.33;;;1.50;;
66425;SDS011;53237;46.158;14.604;2022-07-21T12:19:59;1.88;;;1.40;;
66425;SDS011;53237;46.158;14.604;2022-07-21T12:22:32;1.83;;;1.58;;
66425;SDS011;53237;46.158;14.604;2022-07-21T12:24:58;1.70;;;1.60;;
66425;SDS011;53237;46.158;14.604;2022-07-21T12:27:24;2.60;;;1.65;;
66425;SDS011;53237;46.158;14.604;2022-07-21T12:29:50;2.17;;;1.98;;
66425;SDS011;53237;46.158;14.604;2022-07-21T12:32:36;2.40;;;1.58;;
66425;SDS011;53237;46.158;14.604;2022-07-21T12:35:02;2.03;;;1.50;;
66425;SDS011;53237;46.158;14.604;2022-07-21T12:40:31;2.80;;;2.25;;
66425;SDS011;53237;46.158;14.604;2022-07-21T12:43:05;4.75;;;2.28;;
66425;SDS011;53237;46.158;14.604;2022-07-21T12:45:31;3.63;;;1.85;;
66425;SDS011;53237;46.158;14.604;2022-07-21T12:48:10;3.03;;;2.13;;
66425;SDS011;53237;46.158;14.604;2022-07-21T12:50:36;2.28;;;1.98;;
66425;SDS011;53237;46.158;14.604;2022-07-21T12:53:10;3.55;;;2.80;;
66425;SDS011;53237;46.158;14.604;2022-07-21T12:55:36;3.67;;;2.03;;
66425;SDS011;53237;46.158;14.604;2022-07-21T12:58:03;3.28;;;2.85;;
66425;SDS011;53237;46.158;14.604;2022-07-21T13:00:29;2.80;;;2.20;;
66425;SDS011;53237;46.158;14.604;2022-07-21T13:02:55;3.83;;;2.42;;
66425;SDS011;53237;46.158;14.604;2022-07-21T13:05:22;2.85;;;2.60;;
66425;SDS011;53237;46.158;14.604;2022-07-21T13:07:48;3.45;;;2.42;;
66425;SDS011;53237;46.158;14.604;2022-07-21T13:10:17;3.85;;;2.17;;
66425;SDS011;53237;46.158;14.604;2022-07-21T13:12:43;4.55;;;2.50;;
66425;SDS011;53237;46.158;14.604;2022-07-21T13:15:09;3.78;;;2.20;;
66425;SDS011;53237;46.158;14.604;2022-07-21T13:17:35;2.75;;;2.33;;
66425;SDS011;53237;46.158;14.604;2022-07-21T13:20:02;2.22;;;2.03;;
66425;SDS011;53237;46.158;14.604;2022-07-21T13:22:28;2.40;;;2.03;;
66425;SDS011;53237;46.158;14.604;2022-07-21T13:24:54;2.83;;;1.90;;
66425;SDS011;53237;46.158;14.604;2022-07-21T13:27:20;2.70;;;2.38;;
66425;SDS011;53237;46.158;14.604;2022-07-21T13:29:46;2.30;;;2.10;;
66425;SDS011;53237;46.158;14.604;2022-07-21T13:32:12;2.47;;;2.22;;
66425;SDS011;53237;46.158;14.604;2022-07-21T13:34:38;3.33;;;2.60;;
66425;SDS011;53237;46.158;14.604;2022-07-21T13:37:04;5.03;;;2.40;;
66425;SDS011;53237;46.158;14.604;2022-07-21T13:39:30;2.53;;;2.33;;
66425;SDS011;53237;46.158;14.604;2022-07-21T13:41:57;2.75;;;2.22;;
66425;SDS011;53237;46.158;14.604;2022-07-21T13:44:23;2.05;;;1.90;;
66425;SDS011;53237;46.158;14.604;2022-07-21T13:46:49;2.17;;;2.00;;
66425;SDS011;53237;46.158;14.604;2022-07-21T13:49:15;2.25;;;2.03;;
66425;SDS011;53237;46.158;14.604;2022-07-21T13:51:41;2.08;;;1.88;;
66425;SDS011;53237;46.158;14.604;2022-07-21T13:54:07;3.30;;;2.38;;
66425;SDS011;53237;46.158;14.604;2022-07-21T13:56:33;2.67;;;2.33;;
66425;SDS011;53237;46.158;14.604;2022-07-21T13:58:59;3.05;;;2.03;;
66425;SDS011;53237;46.158;14.604;2022-07-21T14:01:25;3.65;;;2.40;;
66425;SDS011;53237;46.158;14.604;2022-07-21T14:03:53;2.45;;;2.25;;
66425;SDS011;53237;46.158;14.604;2022-07-21T14:06:19;2.17;;;1.70;;
66425;SDS011;53237;46.158;14.604;2022-07-21T14:08:45;3.05;;;2.05;;
66425;SDS011;53237;46.158;14.604;2022-07-21T14:11:11;4.00;;;2.20;;
66425;SDS011;53237;46.158;14.604;2022-07-21T14:13:39;3.35;;;1.90;;
66425;SDS011;53237;46.158;14.604;2022-07-21T14:16:05;2.92;;;2.25;;
66425;SDS011;53237;46.158;14.604;2022-07-21T14:18:31;3.67;;;2.65;;
66425;SDS011;53237;46.158;14.604;2022-07-21T14:20:57;2.78;;;2.30;;
66425;SDS011;53237;46.158;14.604;2022-07-21T14:23:23;2.58;;;1.73;;
66425;SDS011;53237;46.158;14.604;2022-07-21T14:25:50;6.72;;;2.47;;
66425;SDS011;53237;46.158;14.604;2022-07-21T14:28:16;2.92;;;2.20;;
66425;SDS011;53237;46.158;14.604;2022-07-21T14:30:42;3.38;;;2.00;;
66425;SDS011;53237;46.158;14.604;2022-07-21T14:33:08;3.40;;;2.13;;
66425;SDS011;53237;46.158;14.604;2022-07-21T14:35:34;3.80;;;2.08;;
66425;SDS011;53237;46.158;14.604;2022-07-21T14:38:00;3.33;;;2.20;;
66425;SDS011;53237;46.158;14.604;2022-07-21T14:40:27;1.92;;;1.80;;
66425;SDS011;53237;46.158;14.604;2022-07-21T14:42:54;2.03;;;1.83;;
66425;SDS011;53237;46.158;14.604;2022-07-21T14:45:20;2.05;;;1.85;;
66425;SDS011;53237;46.158;14.604;2022-07-21T14:47:47;3.17;;;1.90;;
66425;SDS011;53237;46.158;14.604;2022-07-21T14:50:13;2.47;;;2.10;;
66425;SDS011;53237;46.158;14.604;2022-07-21T14:52:39;2.65;;;2.03;;
66425;SDS011;53237;46.158;14.604;2022-07-21T14:55:06;2.00;;;1.80;;
66425;SDS011;53237;46.158;14.604;2022-07-21T14:57:32;3.28;;;2.35;;
66425;SDS011;53237;46.158;14.604;2022-07-21T14:59:58;2.10;;;1.73;;
66425;SDS011;53237;46.158;14.604;2022-07-21T15:02:24;2.05;;;1.50;;
66425;SDS011;53237;46.158;14.604;2022-07-21T15:04:50;3.35;;;2.00;;
66425;SDS011;53237;46.158;14.604;2022-07-21T15:07:16;4.03;;;2.08;;
66425;SDS011;53237;46.158;14.604;2022-07-21T15:09:42;3.30;;;2.40;;
66425;SDS011;53237;46.158;14.604;2022-07-21T15:12:09;3.47;;;2.28;;